Time;durP1;ratioP1;P1;durP2;ratioP2;P2;SDS_P1;SDS_P2;PMS_P1;PMS_P2;Temp;Humidity;BMP_temperature;BMP_pressure;BME280_temperature;BME280_humidity;BME280_pressure;Samples;Min_cycle;Max_cycle;Signal;HPM_P1;HPM_P2
2022/09/04 00:00:08;;;;;;;7.38;4.00;;;;;;;15.70;74.18;100045.00;10500004;28;20055;-70
2022/09/04 00:05:24;;;;;;;3.88;3.47;;;;;;;15.61;73.94;100045.44;10499311;28;20052;-71
2022/09/04 00:10:37;;;;;;;3.40;3.03;;;;;;;15.56;73.79;100047.50;10498178;28;20044;-71
2022/09/04 00:15:45;;;;;;;4.45;3.97;;;;;;;15.70;73.39;100046.78;10498040;28;20048;-71
2022/09/04 00:20:54;;;;;;;4.15;3.75;;;;;;;16.00;72.03;100047.81;10497275;28;20040;-71
2022/09/04 00:26:26;;;;;;;4.35;3.95;;;;;;;16.03;72.17;100047.66;10480768;28;20037;-71
2022/09/04 00:31:40;;;;;;;4.22;3.65;;;;;;;15.87;71.64;100044.97;10477404;28;20385;-71
2022/09/04 00:36:47;;;;;;;3.80;3.28;;;;;;;15.62;73.64;100047.16;10498108;28;20079;-71
2022/09/04 00:42:08;;;;;;;5.35;3.45;;;;;;;15.59;73.52;100055.28;10497927;28;20032;-71
2022/09/04 00:47:39;;;;;;;5.22;4.72;;;;;;;15.57;74.09;100050.03;10517214;22;20072;-68
2022/09/04 00:53:02;;;;;;;5.35;4.88;;;;;;;15.64;74.10;100050.63;10539025;28;20048;-67
2022/09/04 00:58:30;;;;;;;5.03;4.63;;;;;;;15.58;73.95;100059.72;10520936;28;20386;-68
2022/09/04 01:03:50;;;;;;;5.30;4.80;;;;;;;15.49;74.99;100062.81;10538965;28;20469;-67
2022/09/04 01:09:21;;;;;;;4.93;4.47;;;;;;;15.56;74.59;100064.22;10544928;28;20051;-67
2022/09/04 01:14:38;;;;;;;5.82;5.30;;;;;;;15.61;74.63;100069.28;10546349;28;20059;-67
2022/09/04 01:19:49;;;;;;;;;;;;;;;15.51;76.00;100068.91;10528203;28;20048;-67
2022/09/04 01:25:09;;;;;;;4.47;4.07;;;;;;;15.49;75.34;100076.06;10545533;28;19931;-68
2022/09/04 01:30:17;;;;;;;5.43;4.93;;;;;;;15.47;75.49;100072.66;10546260;28;20064;-68
2022/09/04 01:35:56;;;;;;;4.55;4.15;;;;;;;15.57;75.28;100079.19;10527317;28;20055;-67
2022/09/04 01:41:19;;;;;;;4.38;3.97;;;;;;;15.51;75.83;100074.22;10526368;28;20486;-68
2022/09/04 01:46:49;;;;;;;4.25;3.83;;;;;;;15.63;75.66;100072.75;10545088;28;20044;-68
2022/09/04 01:52:38;;;;;;;4.10;3.70;;;;;;;15.67;75.31;100076.97;10544827;28;20063;-67
2022/09/04 01:58:19;;;;;;;4.95;4.47;;;;;;;15.71;75.65;100082.94;10527171;28;20056;-68
2022/09/04 02:03:46;;;;;;;4.82;4.45;;;;;;;15.54;76.04;100094.41;10545004;28;20044;-67
2022/09/04 02:09:23;;;;;;;6.65;3.80;;;;;;;15.59;76.29;100087.09;10525685;28;20062;-67
2022/09/04 02:14:31;;;;;;;4.32;4.00;;;;;;;15.44;77.02;100094.00;10543266;28;20036;-67
2022/09/04 02:20:00;;;;;;;4.28;3.88;;;;;;;15.40;77.39;100095.09;10542740;28;20115;-68
2022/09/04 02:25:16;;;;;;;4.45;4.15;;;;;;;15.43;77.90;100094.09;10543780;28;20504;-67
2022/09/04 02:30:19;;;;;;;4.80;4.40;;;;;;;15.47;78.31;100100.94;10542487;28;20036;-67
2022/09/04 02:35:40;;;;;;;5.07;4.63;;;;;;;15.29;79.69;100106.22;10543535;28;20050;-68
2022/09/04 02:41:03;;;;;;;6.35;4.20;;;;;;;15.22;79.04;100104.81;10524547;28;20044;-68
2022/09/04 02:46:13;;;;;;;5.57;3.60;;;;;;;15.42;78.62;100113.56;10542153;28;20511;-67
2022/09/04 02:51:25;;;;;;;5.00;4.07;;;;;;;15.74;75.44;100109.31;10542783;28;20445;-67
2022/09/04 02:56:36;;;;;;;5.13;3.58;;;;;;;15.38;77.19;100115.50;10541805;28;20062;-68
2022/09/04 03:02:00;;;;;;;3.65;3.35;;;;;;;15.18;78.86;100111.19;10542135;28;20401;-67
2022/09/04 03:07:10;;;;;;;3.85;3.55;;;;;;;15.04;80.08;100127.75;10523772;28;20036;-68
2022/09/04 03:12:25;;;;;;;3.78;3.45;;;;;;;15.04;79.71;100122.47;10542288;28;20040;-67
2022/09/04 03:17:48;;;;;;;4.43;3.95;;;;;;;15.09;79.52;100116.94;10542114;28;20490;-68
2022/09/04 03:22:56;;;;;;;4.25;3.95;;;;;;;14.91;81.38;100126.63;10523928;28;20453;-68
2022/09/04 03:27:57;;;;;;;5.03;3.85;;;;;;;14.89;81.46;100129.38;10540641;28;20047;-67
2022/09/04 03:33:13;;;;;;;4.55;3.92;;;;;;;14.96;80.30;100126.41;10541261;28;20036;-67
2022/09/04 03:38:24;;;;;;;5.73;4.13;;;;;;;14.99;80.10;100127.13;10541836;28;20048;-67
2022/09/04 03:43:59;;;;;;;5.20;4.80;;;;;;;15.04;80.80;100129.56;10541480;28;20044;-67
2022/09/04 03:49:21;;;;;;;5.10;4.60;;;;;;;15.38;80.06;100134.06;10540841;28;20122;-68
2022/09/04 03:55:04;;;;;;;5.43;4.15;;;;;;;15.12;80.11;100135.34;10540347;28;20097;-67
2022/09/04 04:00:17;;;;;;;4.65;3.65;;;;;;;14.76;82.88;100135.31;10521659;28;20052;-68
2022/09/04 04:05:35;;;;;;;4.15;3.75;;;;;;;14.59;83.92;100141.41;10540670;28;20044;-68
2022/09/04 04:11:04;;;;;;;4.07;3.78;;;;;;;15.09;82.03;100143.41;10522834;28;20048;-68
2022/09/04 04:16:22;;;;;;;4.18;3.53;;;;;;;15.02;81.93;100145.53;10524594;28;20062;-68
2022/09/04 04:21:36;;;;;;;4.40;4.00;;;;;;;14.57;84.21;100144.13;10540103;28;20573;-68
2022/09/04 04:26:48;;;;;;;3.97;3.67;;;;;;;14.66;84.39;100149.94;10539788;28;20044;-67
2022/09/04 04:32:32;;;;;;;4.35;3.92;;;;;;;14.71;84.23;100155.84;10522673;28;20500;-68
2022/09/04 04:37:37;;;;;;;4.68;3.70;;;;;;;14.55;85.12;100156.53;10521926;28;20060;-67
2022/09/04 04:42:48;;;;;;;4.68;4.28;;;;;;;14.56;85.72;100166.19;10545506;28;20405;-67
2022/09/04 04:48:06;;;;;;;4.93;4.50;;;;;;;14.57;85.72;100165.28;10529653;28;20040;-67
2022/09/04 04:53:18;;;;;;;5.47;4.63;;;;;;;14.81;84.42;100173.00;10547042;28;20511;-67
2022/09/04 04:58:43;;;;;;;4.72;4.32;;;;;;;14.69;85.14;100168.28;10546739;28;20051;-67
2022/09/04 05:04:08;;;;;;;5.43;4.95;;;;;;;14.73;84.85;100185.72;10528501;28;20508;-68
2022/09/04 05:09:21;;;;;;;4.60;4.20;;;;;;;14.41;86.44;100182.75;10528776;28;20441;-68
2022/09/04 05:14:53;;;;;;;4.45;4.05;;;;;;;14.26;87.78;100186.94;10528435;28;20056;-68
2022/09/04 05:20:21;;;;;;;4.45;4.05;;;;;;;14.33;87.85;100198.94;10527648;28;20048;-67
2022/09/04 05:26:01;;;;;;;4.25;3.88;;;;;;;14.43;87.52;100206.47;10546779;28;20050;-68
2022/09/04 05:31:08;;;;;;;4.32;3.92;;;;;;;14.52;87.50;100204.31;10376193;28;20523;-67
2022/09/04 05:36:39;;;;;;;6.25;4.10;;;;;;;14.61;87.29;100209.19;10375962;28;20053;-68
2022/09/04 05:42:08;;;;;;;4.53;4.13;;;;;;;15.04;83.64;100216.91;10359483;28;20049;-67
2022/09/04 05:47:47;;;;;;;10.77;4.25;;;;;;;14.86;83.92;100222.13;10374642;28;20508;-69
2022/09/04 05:53:04;;;;;;;4.32;3.92;;;;;;;14.89;83.03;100235.25;10375170;28;20062;-68
2022/09/04 05:58:30;;;;;;;4.10;3.80;;;;;;;15.04;82.62;100246.03;10376771;28;20062;-68
2022/09/04 06:03:47;;;;;;;3.88;3.22;;;;;;;15.83;77.83;100239.56;10545933;28;20128;-68
2022/09/04 06:09:12;;;;;;;3.60;3.30;;;;;;;17.06;69.89;100249.91;10527350;28;20127;-69
2022/09/04 06:14:41;;;;;;;3.30;2.90;;;;;;;17.36;66.76;100257.13;10544113;28;20036;-68
2022/09/04 06:19:51;;;;;;;4.03;2.95;;;;;;;17.68;66.00;100268.59;10542908;28;20044;-68
2022/09/04 06:25:18;;;;;;;3.17;2.78;;;;;;;17.92;62.73;100268.97;10542559;28;20051;-68
2022/09/04 06:30:20;;;;;;;4.18;2.65;;;;;;;18.07;62.14;100275.22;10544357;28;20058;-68
2022/09/04 06:36:00;;;;;;;3.45;3.15;;;;;;;17.94;63.20;100287.53;10526761;28;20048;-69
2022/09/04 06:41:17;;;;;;;3.90;3.17;;;;;;;17.49;63.29;100292.69;10505819;28;20493;-69
2022/09/04 06:46:37;;;;;;;3.10;2.80;;;;;;;17.58;63.44;100289.53;10545100;22;20045;-70
2022/09/04 06:51:42;;;;;;;4.15;3.58;;;;;;;17.29;65.08;100291.13;10502416;28;20115;-70
2022/09/04 06:56:47;;;;;;;3.78;3.47;;;;;;;17.30;66.16;100299.97;10482824;28;20045;-70
2022/09/04 07:02:07;;;;;;;4.15;3.45;;;;;;;17.51;66.30;100304.09;10500847;28;20562;-71
2022/09/04 07:07:35;;;;;;;3.63;3.33;;;;;;;17.54;65.30;100300.41;10482533;28;20067;-70
2022/09/04 07:12:59;;;;;;;4.22;3.28;;;;;;;17.57;63.77;100311.69;10500241;28;20121;-70
2022/09/04 07:18:28;;;;;;;2.90;2.70;;;;;;;17.76;64.17;100313.38;10499269;28;20040;-70
2022/09/04 07:23:43;;;;;;;3.20;2.90;;;;;;;17.96;63.85;100318.38;10500095;28;20055;-71
2022/09/04 07:29:04;;;;;;;3.40;3.10;;;;;;;17.90;64.42;100318.75;10499372;28;20401;-71
2022/09/04 07:34:28;;;;;;;3.42;3.00;;;;;;;18.19;62.72;100318.84;10499897;28;20032;-70
2022/09/04 07:40:10;;;;;;;3.10;2.80;;;;;;;18.38;61.34;100328.34;10499263;28;20041;-72
2022/09/04 07:45:57;;;;;;;3.58;3.10;;;;;;;18.19;62.68;100324.16;10425138;28;20103;-71
2022/09/04 07:51:20;;;;;;;3.95;3.55;;;;;;;18.28;62.92;100334.28;10331608;28;20042;-72
2022/09/04 07:56:48;;;;;;;3.78;3.28;;;;;;;18.49;61.48;100330.34;10330975;28;20412;-71
2022/09/04 08:02:27;;;;;;;4.07;3.28;;;;;;;18.83;58.93;100341.66;10356193;28;20100;-71
2022/09/04 08:07:31;;;;;;;3.55;3.10;;;;;;;18.97;59.39;100347.00;10371659;28;20129;-72
2022/09/04 08:12:36;;;;;;;2.92;2.63;;;;;;;19.70;57.25;100338.88;10371071;28;20046;-71
2022/09/04 08:17:51;;;;;;;3.15;2.20;;;;;;;20.10;57.25;100354.94;10361080;28;20077;-72
2022/09/04 08:23:17;;;;;;;4.25;2.33;;;;;;;20.23;55.17;100357.63;10379872;28;20120;-71
2022/09/04 08:29:01;;;;;;;2.47;2.28;;;;;;;20.50;55.39;100368.31;10508053;28;20136;-72
2022/09/04 08:34:28;;;;;;;2.78;2.17;;;;;;;20.99;53.75;100376.47;10469778;28;20402;-71
2022/09/04 08:39:56;;;;;;;2.60;2.40;;;;;;;20.84;53.87;100367.69;10489780;28;20047;-72
2022/09/04 08:45:31;;;;;;;2.90;2.60;;;;;;;20.88;54.34;100368.34;10507601;28;20516;-71
2022/09/04 08:51:07;;;;;;;3.13;2.53;;;;;;;21.23;54.03;100365.03;10489821;28;20048;-71
2022/09/04 08:56:36;;;;;;;2.50;2.30;;;;;;;21.60;50.81;100369.50;10505539;28;20048;-72
2022/09/04 09:02:02;;;;;;;4.65;2.53;;;;;;;21.87;50.99;100373.78;10505636;28;20442;-71
2022/09/04 09:07:34;;;;;;;4.30;2.47;;;;;;;21.67;51.83;100376.09;10505270;28;20052;-71
2022/09/04 09:13:05;;;;;;;2.70;2.50;;;;;;;22.16;52.39;100372.50;10505383;28;20163;-71
2022/09/04 09:18:26;;;;;;;4.10;2.15;;;;;;;22.38;50.67;100365.53;10504507;28;20051;-70
2022/09/04 09:23:37;;;;;;;4.75;2.17;;;;;;;22.68;49.32;100373.06;10487908;28;20062;-72
2022/09/04 09:29:00;;;;;;;3.67;2.20;;;;;;;23.59;47.24;100373.03;10503700;28;20043;-71
2022/09/04 09:34:38;;;;;;;4.05;2.00;;;;;;;24.09;46.76;100369.91;10505088;28;20040;-71
2022/09/04 09:39:55;;;;;;;2.53;2.00;;;;;;;24.35;45.15;100378.50;10504827;28;20036;-72
2022/09/04 09:45:16;;;;;;;2.40;2.00;;;;;;;24.27;45.02;100373.75;10486087;28;20062;-71
2022/09/04 09:50:44;;;;;;;2.95;2.30;;;;;;;24.38;44.91;100375.56;10504204;28;20048;-70
2022/09/04 09:55:49;;;;;;;3.53;1.75;;;;;;;24.87;45.13;100369.53;10485396;28;20402;-71
2022/09/04 10:00:59;;;;;;;3.50;1.65;;;;;;;25.35;43.48;100360.88;10503402;28;20559;-72
2022/09/04 10:06:28;;;;;;;2.78;1.48;;;;;;;25.11;43.22;100365.75;10503810;28;20044;-72
2022/09/04 10:11:47;;;;;;;1.70;1.50;;;;;;;25.92;42.24;100354.00;10484482;28;20501;-71
2022/09/04 10:17:11;;;;;;;1.92;1.83;;;;;;;25.62;41.96;100352.19;10502540;28;20037;-71
2022/09/04 10:22:39;;;;;;;2.03;1.40;;;;;;;26.17;41.69;100338.28;10485857;28;20067;-71
2022/09/04 10:28:04;;;;;;;2.05;1.50;;;;;;;26.38;42.48;100355.13;10501522;28;20041;-71
2022/09/04 10:33:12;;;;;;;1.88;1.58;;;;;;;26.39;39.61;100356.00;10502543;28;20389;-71
2022/09/04 10:38:25;;;;;;;2.45;1.50;;;;;;;26.05;41.38;100347.50;10500435;28;20525;-71
2022/09/04 10:43:55;;;;;;;1.70;1.30;;;;;;;26.38;41.18;100356.97;10501842;28;20409;-70
2022/09/04 10:49:29;;;;;;;1.85;1.70;;;;;;;26.62;40.69;100351.19;10501080;28;20048;-71
2022/09/04 10:54:46;;;;;;;1.70;1.60;;;;;;;26.06;41.52;100349.19;10501585;28;20037;-71
2022/09/04 11:00:16;;;;;;;1.67;1.20;;;;;;;26.78;40.17;100358.66;10484328;28;20393;-71
2022/09/04 11:05:23;;;;;;;3.33;1.60;;;;;;;26.43;40.37;100354.75;10499949;28;20036;-71
2022/09/04 11:10:53;;;;;;;1.48;1.38;;;;;;;26.25;41.44;100357.25;10500556;28;20040;-71
2022/09/04 11:16:00;;;;;;;5.45;1.58;;;;;;;25.88;41.41;100357.09;10491364;28;20425;-71
2022/09/04 11:21:38;;;;;;;3.40;1.30;;;;;;;25.34;41.53;100355.66;10483387;28;20047;-71
2022/09/04 11:27:00;;;;;;;1.55;1.45;;;;;;;25.56;41.77;100362.66;10499346;28;20498;-71
2022/09/04 11:32:30;;;;;;;1.77;1.60;;;;;;;25.69;41.61;100365.97;10499635;28;20036;-72
2022/09/04 11:37:38;;;;;;;3.15;1.58;;;;;;;25.60;42.86;100359.56;10499256;28;20474;-71
2022/09/04 11:43:04;;;;;;;1.70;1.30;;;;;;;25.44;42.34;100361.91;10499051;28;20044;-71
2022/09/04 11:48:25;;;;;;;1.88;1.52;;;;;;;25.44;43.39;100363.75;10498193;28;20036;-72
2022/09/04 11:54:07;;;;;;;2.45;1.63;;;;;;;25.66;42.61;100353.63;10499589;28;20119;-72
2022/09/04 11:59:22;;;;;;;3.42;1.60;;;;;;;25.66;41.84;100359.00;10498919;28;20449;-71
2022/09/04 12:04:46;;;;;;;1.90;1.50;;;;;;;25.63;41.94;100367.38;10481178;28;20052;-71
2022/09/04 12:10:15;;;;;;;2.78;1.70;;;;;;;25.98;41.76;100368.75;10499189;28;20040;-72
2022/09/04 12:15:35;;;;;;;2.60;1.90;;;;;;;25.85;40.76;100365.44;10498472;28;20041;-71
2022/09/04 12:20:44;;;;;;;6.78;1.70;;;;;;;25.78;41.35;100361.63;10498116;28;20041;-70
2022/09/04 12:26:08;;;;;;;2.60;1.80;;;;;;;25.55;42.67;100363.66;10498130;28;20047;-71
2022/09/04 12:31:50;;;;;;;1.80;1.70;;;;;;;25.33;42.67;100360.19;10498164;28;20032;-71
2022/09/04 12:37:13;;;;;;;1.92;1.67;;;;;;;25.74;42.51;100360.16;10478629;28;20528;-71
2022/09/04 12:42:30;;;;;;;3.75;1.80;;;;;;;26.15;41.49;100351.03;10480331;28;20044;-72
2022/09/04 12:47:32;;;;;;;1.67;1.40;;;;;;;26.16;42.20;100353.59;10479354;28;20422;-76
2022/09/04 12:53:04;;;;;;;2.42;1.63;;;;;;;25.94;41.88;100350.31;10497086;28;20464;-76
2022/09/04 12:58:16;;;;;;;1.70;1.60;;;;;;;24.98;43.57;100363.25;10496748;28;20638;-76
2022/09/04 13:03:24;;;;;;;2.13;1.92;;;;;;;25.16;44.31;100358.13;10485264;28;20043;-76
2022/09/04 13:08:44;;;;;;;2.78;1.95;;;;;;;25.46;43.29;100362.66;10504999;28;20045;-76
2022/09/04 13:14:04;;;;;;;1.95;1.85;;;;;;;25.42;42.95;100361.22;10504452;28;20051;-75
2022/09/04 13:19:34;;;;;;;1.67;1.58;;;;;;;25.22;43.62;100362.97;10504778;28;20110;-75
2022/09/04 13:24:42;;;;;;;1.80;1.67;;;;;;;25.01;43.54;100362.97;10505384;28;20048;-76
2022/09/04 13:30:08;;;;;;;3.05;1.88;;;;;;;24.99;43.49;100359.56;10506246;28;20041;-75
2022/09/04 13:35:16;;;;;;;1.73;1.45;;;;;;;24.80;43.40;100359.47;10504895;28;20510;-75
2022/09/04 13:40:32;;;;;;;2.47;1.90;;;;;;;24.75;43.69;100365.25;10488425;28;20044;-75
2022/09/04 13:45:52;;;;;;;1.70;1.60;;;;;;;24.97;43.27;100360.66;10485648;28;20475;-75
2022/09/04 13:51:00;;;;;;;4.45;1.38;;;;;;;24.87;42.67;100361.47;10482920;28;20383;-77
2022/09/04 13:56:22;;;;;;;2.13;1.60;;;;;;;24.79;43.02;100366.69;10462506;28;20099;-75
2022/09/04 14:01:28;;;;;;;3.65;1.95;;;;;;;24.76;42.92;100363.41;10463433;28;20074;-76
2022/09/04 14:06:33;;;;;;;2.67;2.30;;;;;;;24.63;42.95;100364.44;10463010;28;20047;-76
2022/09/04 14:12:01;;;;;;;2.05;1.75;;;;;;;24.72;42.38;100362.81;10444537;28;20045;-75
2022/09/04 14:17:06;;;;;;;2.45;1.90;;;;;;;24.72;42.71;100368.19;10462768;28;20041;-76
2022/09/04 14:22:30;;;;;;;4.95;1.65;;;;;;;24.69;41.83;100362.22;10446390;28;20041;-76
2022/09/04 14:28:07;;;;;;;2.95;1.67;;;;;;;24.53;42.25;100358.16;10447639;28;20045;-77
2022/09/04 14:33:25;;;;;;;3.65;1.80;;;;;;;24.60;42.12;100372.75;10462668;28;20041;-76
2022/09/04 14:39:01;;;;;;;1.70;1.40;;;;;;;24.56;41.76;100365.09;10461957;28;20120;-76
2022/09/04 14:44:18;;;;;;;4.40;1.60;;;;;;;24.72;41.26;100365.50;10462107;28;20433;-75
2022/09/04 14:49:26;;;;;;;1.85;1.50;;;;;;;24.78;41.45;100366.78;10443129;28;20052;-75
2022/09/04 14:54:34;;;;;;;1.48;1.38;;;;;;;24.75;41.71;100367.06;10492290;28;20170;-76
2022/09/04 14:59:43;;;;;;;3.33;1.60;;;;;;;24.72;42.08;100384.31;10500502;28;20102;-75
2022/09/04 15:05:02;;;;;;;1.52;1.40;;;;;;;24.66;41.47;100384.84;10499876;28;20409;-76
2022/09/04 15:10:15;;;;;;;2.15;1.50;;;;;;;24.51;41.88;100391.50;10500506;28;20055;-76
2022/09/04 15:15:31;;;;;;;2.40;1.60;;;;;;;24.50;42.29;100390.66;10499847;28;20094;-75
2022/09/04 15:20:37;;;;;;;1.80;1.70;;;;;;;24.39;41.98;100393.38;10499923;28;20049;-75
2022/09/04 15:25:48;;;;;;;4.15;1.48;;;;;;;24.40;41.84;100395.09;10473081;28;20083;-76
2022/09/04 15:31:14;;;;;;;1.70;1.60;;;;;;;24.35;42.12;100389.25;10500334;28;20075;-75
2022/09/04 15:36:23;;;;;;;2.45;1.48;;;;;;;24.24;42.64;100391.94;10481127;28;20056;-76
2022/09/04 15:41:42;;;;;;;1.77;1.67;;;;;;;24.38;43.13;100389.84;10498954;28;20411;-76
2022/09/04 15:47:22;;;;;;;2.08;1.52;;;;;;;24.45;41.90;100394.72;10499900;28;20048;-75
2022/09/04 15:52:39;;;;;;;1.95;1.70;;;;;;;24.38;42.14;100395.22;10485325;28;20098;-76
2022/09/04 15:57:41;;;;;;;2.17;1.50;;;;;;;24.20;42.82;100406.63;10502798;28;20051;-75
2022/09/04 16:02:53;;;;;;;1.58;1.30;;;;;;;24.08;42.09;100401.28;10500954;28;20037;-75
2022/09/04 16:08:03;;;;;;;1.77;1.60;;;;;;;24.02;42.55;100401.78;10498160;28;20457;-75
2022/09/04 16:13:26;;;;;;;4.32;4.03;;;;;;;23.94;43.12;100408.75;10499654;28;20086;-75
2022/09/04 16:18:37;;;;;;;7.50;6.75;;;;;;;23.76;43.68;100408.41;10458406;28;20116;-75
2022/09/04 16:23:39;;;;;;;5.45;5.03;;;;;;;23.69;43.78;100417.97;10480161;28;20048;-75
2022/09/04 16:28:47;;;;;;;1.75;1.65;;;;;;;23.79;43.43;100418.91;10499433;28;20405;-74
2022/09/04 16:33:53;;;;;;;1.70;1.60;;;;;;;23.62;43.31;100420.22;10500903;28;20037;-75
2022/09/04 16:38:58;;;;;;;3.72;3.40;;;;;;;23.51;44.26;100417.56;10508958;28;20394;-76
2022/09/04 16:44:26;;;;;;;3.67;3.38;;;;;;;23.72;43.75;100417.69;10506594;28;20478;-74
2022/09/04 16:50:11;;;;;;;3.25;1.88;;;;;;;23.63;43.50;100414.75;10506534;28;20067;-75
2022/09/04 16:55:25;;;;;;;2.75;1.75;;;;;;;23.48;43.62;100434.75;10338748;28;20186;-75
2022/09/04 17:00:50;;;;;;;3.25;1.65;;;;;;;23.32;43.79;100453.03;10338536;28;20416;-75
2022/09/04 17:06:01;;;;;;;1.75;1.65;;;;;;;23.28;43.92;100443.50;10338180;28;20078;-74
2022/09/04 17:11:09;;;;;;;2.67;1.70;;;;;;;23.26;44.13;100446.31;10338647;28;20050;-77
2022/09/04 17:16:23;;;;;;;3.97;1.55;;;;;;;23.11;44.24;100451.06;10337359;28;20066;-74
2022/09/04 17:27:45;;;;;;;2.33;1.77;;;;;;;23.01;44.09;100460.78;10273691;28;20138;-76
2022/09/04 17:33:28;;;;;;;1.73;1.60;;;;;;;22.70;44.95;100461.38;10484713;28;20045;-75
2022/09/04 17:39:01;;;;;;;2.35;1.75;;;;;;;22.60;45.67;100461.22;10463474;28;20164;-75
2022/09/04 17:44:44;;;;;;;2.08;1.70;;;;;;;22.69;45.31;100475.75;10463414;28;20049;-75
2022/09/04 17:49:57;;;;;;;1.92;1.70;;;;;;;22.57;45.57;100475.69;10462869;28;20107;-74
2022/09/04 17:55:06;;;;;;;3.13;1.75;;;;;;;22.53;45.96;100482.25;10462821;28;20041;-74
2022/09/04 18:00:19;;;;;;;4.75;2.05;;;;;;;22.22;47.09;100480.13;10462290;28;20055;-74
2022/09/04 18:05:27;;;;;;;2.13;2.00;;;;;;;21.82;48.42;100499.03;10457689;28;20044;-72
2022/09/04 18:10:51;;;;;;;2.80;2.05;;;;;;;21.83;48.66;100498.94;10505428;28;20445;-74
2022/09/04 18:16:15;;;;;;;2.45;2.25;;;;;;;21.65;49.12;100508.28;10466209;28;20454;-73
2022/09/04 18:21:27;;;;;;;2.20;2.00;;;;;;;21.58;49.55;100509.66;10459824;28;20048;-73
2022/09/04 18:26:45;;;;;;;2.40;2.08;;;;;;;21.68;49.77;100518.72;10506148;28;20052;-73
2022/09/04 18:32:05;;;;;;;2.50;2.30;;;;;;;21.54;49.92;100521.53;10506381;28;20056;-73
2022/09/04 18:37:29;;;;;;;2.85;2.50;;;;;;;21.16;51.13;100533.88;10479254;28;20072;-73
2022/09/04 18:43:19;;;;;;;3.17;2.78;;;;;;;21.14;51.69;100534.94;10460713;28;20057;-73
2022/09/04 18:49:12;;;;;;;2.72;2.40;;;;;;;21.16;51.66;100539.22;10506312;28;20062;-73
2022/09/04 18:54:46;;;;;;;2.53;2.33;;;;;;;20.91;52.75;100544.50;10377222;28;20053;-72
2022/09/04 18:59:51;;;;;;;2.50;2.30;;;;;;;20.99;52.40;100544.84;10363566;28;20058;-73
2022/09/04 19:05:13;;;;;;;2.70;2.45;;;;;;;20.75;53.20;100552.66;10377765;28;20093;-73
2022/09/04 19:10:28;;;;;;;2.70;2.50;;;;;;;20.68;53.80;100547.84;10355135;28;20049;-74
2022/09/04 19:15:47;;;;;;;5.17;3.37;;;;;;;20.55;53.95;100545.97;10381213;28;20396;-73
2022/09/04 19:20:56;;;;;;;2.90;2.70;;;;;;;20.34;55.14;100558.00;10356362;28;20125;-73
2022/09/04 19:26:07;;;;;;;3.08;2.75;;;;;;;20.27;55.52;100559.34;10360397;28;20406;-74
2022/09/04 19:31:16;;;;;;;5.25;2.78;;;;;;;20.24;55.79;100567.56;10379652;28;20065;-72
2022/09/04 19:36:35;;;;;;;3.55;3.15;;;;;;;20.38;55.85;100562.19;10380237;28;20452;-73
2022/09/04 19:41:46;;;;;;;2.83;2.63;;;;;;;20.10;56.72;100569.28;10376426;28;20491;-74
2022/09/04 19:47:29;;;;;;;3.40;2.92;;;;;;;20.05;57.25;100574.03;10376624;28;20053;-74
2022/09/04 19:52:39;;;;;;;3.70;2.95;;;;;;;19.65;58.28;100578.31;10375854;28;20042;-73
2022/09/04 19:58:16;;;;;;;3.10;2.80;;;;;;;19.43;59.17;100573.38;10376038;28;20057;-72
2022/09/04 20:03:21;;;;;;;3.40;2.58;;;;;;;19.40;59.96;100579.78;10376077;28;20042;-73
2022/09/04 20:08:38;;;;;;;3.33;3.05;;;;;;;19.70;59.42;100584.25;10359238;28;20048;-73
2022/09/04 20:13:46;;;;;;;2.88;2.67;;;;;;;19.36;60.73;100580.03;10374560;28;20451;-73
2022/09/04 20:19:10;;;;;;;3.75;3.38;;;;;;;19.22;61.21;100582.69;10374577;28;20070;-74
2022/09/04 20:24:40;;;;;;;3.97;3.42;;;;;;;19.26;63.28;100584.22;10349516;28;20046;-73
2022/09/04 20:30:23;;;;;;;4.18;3.38;;;;;;;19.21;64.07;100596.91;10375863;28;20053;-74
2022/09/04 20:35:38;;;;;;;4.07;3.72;;;;;;;19.13;63.94;100595.59;10376307;28;20069;-73
2022/09/04 20:40:44;;;;;;;4.22;3.92;;;;;;;18.78;64.87;100591.44;10374901;28;20050;-74
2022/09/04 20:46:01;;;;;;;3.88;3.50;;;;;;;18.44;66.29;100603.06;10376237;28;20046;-73
2022/09/04 20:51:31;;;;;;;4.15;3.78;;;;;;;18.50;68.35;100603.56;10376361;28;20041;-74
2022/09/04 20:57:13;;;;;;;4.30;3.58;;;;;;;18.45;67.89;100605.63;10358855;28;20044;-74
2022/09/04 21:03:06;;;;;;;4.43;4.13;;;;;;;18.28;69.16;100600.38;10377393;28;20075;-73
2022/09/04 21:08:53;;;;;;;4.18;3.88;;;;;;;18.11;69.73;100604.84;10377093;28;20072;-73
2022/09/04 21:13:59;;;;;;;4.85;4.40;;;;;;;18.08;70.13;100612.13;10375471;28;20483;-74
2022/09/04 21:19:23;;;;;;;5.05;4.65;;;;;;;17.90;70.89;100613.97;10375708;28;20121;-73
2022/09/04 21:24:57;;;;;;;5.47;5.07;;;;;;;17.62;72.12;100620.69;10378314;28;20041;-73
2022/09/04 21:30:06;;;;;;;4.82;4.40;;;;;;;17.58;72.93;100620.94;10386740;28;20064;-74
2022/09/04 21:35:32;;;;;;;4.97;4.57;;;;;;;17.42;73.56;100626.16;10362799;28;20145;-73
2022/09/04 21:40:51;;;;;;;4.97;4.57;;;;;;;17.46;74.32;100621.56;10382082;28;20120;-73
2022/09/04 21:46:24;;;;;;;5.75;5.32;;;;;;;17.57;74.15;100624.50;10380696;28;20451;-73
2022/09/04 21:51:51;;;;;;;;;;;;;;;17.29;75.50;100627.72;10380873;28;20053;-73
2022/09/04 21:57:42;;;;;;;5.88;5.40;;;;;;;17.22;76.07;100628.94;10360393;28;20371;-73
2022/09/04 22:03:14;;;;;;;5.90;5.40;;;;;;;17.33;75.92;100637.25;10253785;29;20489;-75
2022/09/04 22:08:32;;;;;;;6.05;5.55;;;;;;;17.05;77.01;100643.94;10254078;28;20085;-73
2022/09/04 22:14:03;;;;;;;5.75;5.32;;;;;;;16.83;78.61;100635.28;10254325;28;20126;-72
2022/09/04 22:19:23;;;;;;;5.63;5.22;;;;;;;17.00;78.37;100634.47;10253848;29;20612;-73
2022/09/04 22:25:00;;;;;;;6.25;5.85;;;;;;;17.01;78.17;100631.75;10252971;28;20413;-73
2022/09/04 22:30:11;;;;;;;5.85;5.45;;;;;;;16.87;79.07;100634.22;10264022;28;20116;-72
2022/09/04 22:35:28;;;;;;;5.53;5.03;;;;;;;16.50;80.26;100630.59;10361186;28;20050;-73
2022/09/04 22:41:03;;;;;;;6.20;5.70;;;;;;;16.63;81.17;100633.53;10377034;28;20049;-73
2022/09/04 22:46:29;;;;;;;7.55;5.05;;;;;;;16.73;80.44;100628.69;10375849;28;20042;-73
2022/09/04 22:51:50;;;;;;;6.13;5.65;;;;;;;16.66;80.86;100622.78;10374265;28;20412;-72
2022/09/04 22:56:58;;;;;;;5.85;5.43;;;;;;;16.54;81.42;100632.19;10359893;28;20129;-73
2022/09/04 23:02:03;;;;;;;5.70;5.30;;;;;;;16.28;83.04;100635.19;10374993;28;20133;-73
2022/09/04 23:07:45;;;;;;;5.82;5.43;;;;;;;16.48;82.04;100640.44;10374938;28;20561;-73
2022/09/04 23:14:06;;;;;;;6.35;5.88;;;;;;;16.26;83.49;100631.75;10356960;28;20046;-73
2022/09/04 23:19:15;;;;;;;6.27;5.80;;;;;;;16.21;83.89;100631.97;10314472;28;20467;-72
2022/09/04 23:24:58;;;;;;;5.78;5.47;;;;;;;15.97;85.37;100641.88;10374872;28;20053;-73
2022/09/04 23:30:22;;;;;;;6.97;5.35;;;;;;;15.98;85.40;100632.13;10356434;28;20132;-73
2022/09/04 23:35:45;;;;;;;6.60;6.10;;;;;;;15.99;85.81;100633.88;10357601;28;20436;-73
2022/09/04 23:41:12;;;;;;;6.90;6.40;;;;;;;15.95;86.41;100635.78;10374112;28;20140;-73
2022/09/04 23:46:22;;;;;;;6.20;5.80;;;;;;;16.08;85.60;100636.97;10373386;28;20056;-72
2022/09/04 23:51:35;;;;;;;6.43;6.03;;;;;;;15.71;87.05;100634.19;10356371;28;20049;-72
2022/09/04 23:56:45;;;;;;;7.00;6.43;;;;;;;15.82;87.15;100648.72;10356159;28;20548;-72
